createdAt,value
2023-07-04T00:02:03.048Z,97608.91
2023-07-04T00:04:35.570Z,97610.77
2023-07-04T00:07:09.227Z,97615.44
2023-07-04T00:09:42.777Z,97616.14
2023-07-04T00:12:15.302Z,97614.71
2023-07-04T00:14:48.011Z,97616.23
2023-07-04T00:17:21.453Z,97617.41
2023-07-04T00:19:54.347Z,97619.77
2023-07-04T00:22:27.506Z,97622.27
2023-07-04T00:25:00.221Z,97624.88
2023-07-04T00:27:34.976Z,97621.88
2023-07-04T00:30:09.644Z,97619.69
2023-07-04T00:32:41.426Z,97616.67
2023-07-04T00:35:14.227Z,97620.39
2023-07-04T00:37:46.668Z,97616.16
2023-07-04T00:40:19.065Z,97614.77
2023-07-04T00:42:53.659Z,97613.14
2023-07-04T00:45:28.684Z,97612.61
2023-07-04T00:48:04.707Z,97612.30
2023-07-04T00:50:42.701Z,97614.36
2023-07-04T00:53:17.894Z,97616.15
2023-07-04T00:55:52.076Z,97612.95
2023-07-04T00:58:23.852Z,97620.86
2023-07-04T01:00:55.659Z,97628.33
2023-07-04T01:03:28.476Z,97640.89
2023-07-04T01:06:09.015Z,97642.08
2023-07-04T01:08:45.194Z,97640.80
2023-07-04T01:11:21.653Z,97633.70
2023-07-04T01:13:54.567Z,97634.92
2023-07-04T01:16:27.383Z,97638.89
2023-07-04T01:19:02.992Z,97641.97
2023-07-04T01:21:35.797Z,97638.46
2023-07-04T01:24:17.541Z,97637.42
2023-07-04T01:26:51.724Z,97635.42
2023-07-04T01:29:24.373Z,97638.97
2023-07-04T01:31:58.924Z,97644.03
2023-07-04T01:34:34.630Z,97647.69
2023-07-04T01:37:07.796Z,97647.23
2023-07-04T01:39:39.494Z,97642.96
2023-07-04T01:42:12.514Z,97645.33
2023-07-04T01:44:44.553Z,97653.00
2023-07-04T01:47:19.591Z,97652.64
2023-07-04T01:49:52.059Z,97651.18
2023-07-04T01:52:24.429Z,97645.90
2023-07-04T01:54:56.827Z,97647.59
2023-07-04T01:57:29.790Z,97643.71
2023-07-04T02:00:02.675Z,97643.05
2023-07-04T02:02:57.048Z,97647.52
2023-07-04T02:05:29.402Z,97644.04
2023-07-04T02:08:01.684Z,97644.42
2023-07-04T02:10:33.830Z,97645.69
2023-07-04T02:13:06.698Z,97639.85
2023-07-04T02:15:39.066Z,97635.92
2023-07-04T02:18:12.897Z,97634.52
2023-07-04T02:20:45.604Z,97633.51
2023-07-04T02:23:19.234Z,97635.58
2023-07-04T02:25:56.269Z,97635.42
2023-07-04T02:28:30.955Z,97639.50
2023-07-04T02:31:03.989Z,97642.00
2023-07-04T02:33:37.325Z,97640.55
2023-07-04T02:36:13.061Z,97633.60
2023-07-04T02:38:46.060Z,97635.23
2023-07-04T02:41:18.618Z,97638.70
2023-07-04T02:43:53.001Z,97640.66
2023-07-04T02:46:25.600Z,97640.02
2023-07-04T02:49:01.800Z,97645.81
2023-07-04T02:51:34.369Z,97643.84
2023-07-04T02:54:07.574Z,97645.08
2023-07-04T02:56:40.930Z,97643.19
2023-07-04T02:59:13.425Z,97643.58
2023-07-04T03:01:45.790Z,97633.48
2023-07-04T03:04:19.249Z,97632.48
2023-07-04T03:06:51.646Z,97632.20
2023-07-04T03:09:24.584Z,97631.08
2023-07-04T03:11:57.154Z,97630.92
2023-07-04T03:14:29.346Z,97633.80
2023-07-04T03:17:01.288Z,97631.20
2023-07-04T03:19:33.934Z,97632.98
2023-07-04T03:22:06.020Z,97637.85
2023-07-04T03:24:39.544Z,97637.89
2023-07-04T03:27:12.888Z,97634.31
2023-07-04T03:29:45.055Z,97631.99
2023-07-04T03:32:20.416Z,97634.25
2023-07-04T03:34:52.949Z,97639.01
2023-07-04T03:37:24.915Z,97633.60
2023-07-04T03:39:58.566Z,97633.53
2023-07-04T03:42:31.969Z,97635.50
2023-07-04T03:45:05.118Z,97630.19
2023-07-04T03:47:37.479Z,97636.01
2023-07-04T03:50:14.360Z,97640.33
2023-07-04T03:52:48.702Z,97639.05
2023-07-04T03:55:20.736Z,97639.14
2023-07-04T03:57:52.908Z,97638.12
2023-07-04T04:00:25.860Z,97639.61
2023-07-04T04:03:00.787Z,97646.22
2023-07-04T04:05:34.978Z,97650.06
2023-07-04T04:08:08.495Z,97653.95
2023-07-04T04:10:41.335Z,97660.64
2023-07-04T04:13:13.665Z,97666.48
2023-07-04T04:15:45.932Z,97667.01
2023-07-04T04:18:17.925Z,97671.96
2023-07-04T04:20:50.637Z,97676.40
2023-07-04T04:23:23.280Z,97676.38
2023-07-04T04:25:55.528Z,97677.13
2023-07-04T04:28:27.708Z,97679.23
2023-07-04T04:31:00.281Z,97681.00
2023-07-04T04:33:32.291Z,97682.77
2023-07-04T04:36:04.891Z,97686.66
2023-07-04T04:38:37.538Z,97688.79
2023-07-04T04:41:11.025Z,97692.13
2023-07-04T04:43:43.033Z,97684.84
2023-07-04T04:46:15.569Z,97686.23
2023-07-04T04:48:47.802Z,97689.68
2023-07-04T04:51:23.657Z,97691.71
2023-07-04T04:53:56.424Z,97690.48
2023-07-04T04:56:28.777Z,97692.08
2023-07-04T04:59:00.257Z,97692.92
2023-07-04T05:01:32.757Z,97699.02
2023-07-04T05:04:04.910Z,97703.53
2023-07-04T05:06:38.018Z,97699.86
2023-07-04T05:09:10.276Z,97705.65
2023-07-04T05:11:43.319Z,97702.50
2023-07-04T05:14:14.944Z,97712.12
2023-07-04T05:16:46.944Z,97711.84
2023-07-04T05:19:19.357Z,97714.24
2023-07-04T05:21:50.934Z,97714.88
2023-07-04T05:24:22.877Z,97713.93
2023-07-04T05:26:55.685Z,97711.23
2023-07-04T05:29:27.632Z,97711.48
2023-07-04T05:32:00.684Z,97713.45
2023-07-04T05:34:32.600Z,97718.84
2023-07-04T05:37:07.011Z,97723.49
2023-07-04T05:39:39.725Z,97723.04
2023-07-04T05:42:11.976Z,97731.43
2023-07-04T05:44:44.263Z,97732.83
2023-07-04T05:47:15.837Z,97739.21
2023-07-04T05:49:47.682Z,97735.23
2023-07-04T05:52:19.596Z,97736.23
2023-07-04T05:54:52.749Z,97731.81
2023-07-04T05:57:25.092Z,97730.23
2023-07-04T05:59:57.111Z,97734.00
2023-07-04T06:02:29.557Z,97736.30
2023-07-04T06:05:01.502Z,97738.89
2023-07-04T06:07:37.482Z,97743.14
2023-07-04T06:10:11.151Z,97744.36
2023-07-04T06:12:44.157Z,97743.77
2023-07-04T06:15:16.768Z,97745.13
2023-07-04T06:17:48.640Z,97743.42
2023-07-04T06:20:22.584Z,97745.77
2023-07-04T06:22:54.392Z,97748.82
2023-07-04T06:25:28.252Z,97751.21
2023-07-04T06:28:00.566Z,97750.96
2023-07-04T06:30:36.127Z,97751.73
2023-07-04T06:33:10.593Z,97753.36
2023-07-04T06:35:45.470Z,97750.05
2023-07-04T06:38:17.843Z,97748.33
2023-07-04T06:40:59.367Z,97752.03
2023-07-04T06:43:34.071Z,97754.27
2023-07-04T06:46:06.447Z,97751.66
2023-07-04T06:48:38.495Z,97755.89
2023-07-04T06:51:13.448Z,97759.45
2023-07-04T06:53:46.486Z,97757.28
2023-07-04T06:56:20.943Z,97750.91
2023-07-04T06:58:55.888Z,97752.42
2023-07-04T07:01:29.524Z,97755.02
2023-07-04T07:04:03.965Z,97758.46
2023-07-04T07:06:37.854Z,97761.34
2023-07-04T07:09:11.575Z,97764.80
2023-07-04T07:11:43.295Z,97762.59
2023-07-04T07:14:15.634Z,97768.61
2023-07-04T07:16:48.016Z,97767.34
2023-07-04T07:19:21.002Z,97768.96
2023-07-04T07:21:53.885Z,97772.68
2023-07-04T07:24:26.896Z,97773.33
2023-07-04T07:26:59.131Z,97774.84
2023-07-04T07:29:31.972Z,97772.17
2023-07-04T07:32:09.939Z,97773.59
2023-07-04T07:34:44.302Z,97777.04
2023-07-04T07:37:16.848Z,97775.85
2023-07-04T07:39:51.363Z,97774.73
2023-07-04T07:42:23.681Z,97773.34
2023-07-04T07:44:57.074Z,97776.16
2023-07-04T07:47:28.739Z,97774.64
2023-07-04T07:50:01.022Z,97774.34
2023-07-04T07:52:33.645Z,97776.61
2023-07-04T07:55:05.962Z,97773.49
2023-07-04T07:57:38.456Z,97768.84
2023-07-04T08:00:17.524Z,97766.68
2023-07-04T08:02:49.333Z,97765.84
2023-07-04T08:05:22.417Z,97766.78
2023-07-04T08:07:54.523Z,97774.11
2023-07-04T08:10:27.483Z,97774.59
2023-07-04T08:12:59.489Z,97774.60
2023-07-04T08:15:32.133Z,97776.38
2023-07-04T08:18:08.450Z,97778.36
2023-07-04T08:20:40.922Z,97779.95
2023-07-04T08:23:12.844Z,97778.73
2023-07-04T08:25:45.337Z,97774.08
2023-07-04T08:28:18.213Z,97775.99
2023-07-04T08:30:51.446Z,97776.85
2023-07-04T08:33:23.373Z,97780.23
2023-07-04T08:36:01.289Z,97774.77
2023-07-04T08:38:33.894Z,97775.95
2023-07-04T08:41:10.972Z,97777.27
2023-07-04T08:43:52.684Z,97776.48
2023-07-04T08:46:26.287Z,97776.83
2023-07-04T08:48:58.261Z,97773.95
2023-07-04T08:51:37.906Z,97773.88
2023-07-04T08:54:14.605Z,97774.23
2023-07-04T08:56:48.801Z,97769.31
2023-07-04T08:59:30.860Z,97767.45
2023-07-04T09:02:18.324Z,97766.02
2023-07-04T09:04:58.980Z,97768.63
2023-07-04T09:07:40.580Z,97769.16
2023-07-04T09:10:24.993Z,97771.45
2023-07-04T09:12:57.186Z,97777.76
2023-07-04T09:15:33.925Z,97779.19
2023-07-04T09:18:22.347Z,97776.77
2023-07-04T09:21:03.743Z,97777.52
2023-07-04T09:23:35.520Z,97774.84
2023-07-04T09:26:13.147Z,97772.36
2023-07-04T09:28:47.030Z,97775.18
2023-07-04T09:31:22.602Z,97774.50
2023-07-04T09:33:55.939Z,97770.45
2023-07-04T09:36:34.655Z,97768.05
2023-07-04T09:39:07.245Z,97771.80
2023-07-04T09:42:03.705Z,97769.07
2023-07-04T09:44:38.346Z,97768.88
2023-07-04T09:47:26.462Z,97765.23
2023-07-04T09:50:15.740Z,97775.53
2023-07-04T09:52:47.285Z,97772.77
2023-07-04T09:55:28.230Z,97776.48
2023-07-04T09:58:18.849Z,97774.09
2023-07-04T10:01:09.897Z,97766.25
2023-07-04T10:03:43.043Z,97774.10
2023-07-04T10:06:31.422Z,97775.23
2023-07-04T10:09:18.637Z,97776.36
2023-07-04T10:11:53.005Z,97779.20
2023-07-04T10:14:37.205Z,97773.48
2023-07-04T10:17:17.019Z,97771.77
2023-07-04T10:19:52.730Z,97772.81
2023-07-04T10:22:31.885Z,97770.77
2023-07-04T10:25:04.393Z,97769.94
2023-07-04T10:27:38.618Z,97764.73
2023-07-04T10:30:16.347Z,97761.16
2023-07-04T10:32:51.538Z,97759.70
2023-07-04T10:35:28.901Z,97756.34
2023-07-04T10:38:06.194Z,97759.24
2023-07-04T10:40:42.458Z,97760.18
2023-07-04T10:43:21.506Z,97765.66
2023-07-04T10:46:01.504Z,97758.16
2023-07-04T10:48:35.814Z,97760.13
2023-07-04T10:51:17.460Z,97763.30
2023-07-04T10:53:51.285Z,97759.30
2023-07-04T10:56:29.110Z,97762.04
2023-07-04T10:59:08.469Z,97759.64
2023-07-04T11:01:46.113Z,97763.23
2023-07-04T11:04:23.385Z,97761.20
2023-07-04T11:07:01.163Z,97757.39
2023-07-04T11:09:37.332Z,97752.63
2023-07-04T11:12:16.462Z,97757.96
2023-07-04T11:14:50.527Z,97757.14
2023-07-04T11:17:25.671Z,97761.66
2023-07-04T11:20:12.600Z,97758.14
2023-07-04T11:23:04.674Z,97759.59
2023-07-04T11:25:55.897Z,97756.41
2023-07-04T11:28:45.052Z,97754.75
2023-07-04T11:31:28.804Z,97751.17
2023-07-04T11:34:17.357Z,97748.88
2023-07-04T11:37:00.082Z,97752.66
2023-07-04T11:39:36.806Z,97757.36
2023-07-04T11:42:22.612Z,97752.69
2023-07-04T11:45:04.772Z,97758.63
2023-07-04T11:48:05.134Z,97759.89
2023-07-04T11:50:41.791Z,97757.38
2023-07-04T11:53:18.666Z,97752.02
2023-07-04T11:56:15.439Z,97751.60
2023-07-04T11:58:50.965Z,97747.71
2023-07-04T12:01:25.534Z,97746.98
2023-07-04T12:04:08.570Z,97749.02
2023-07-04T12:07:10.861Z,97746.30
2023-07-04T12:09:49.734Z,97745.33
2023-07-04T12:12:26.954Z,97741.39
2023-07-04T12:15:09.723Z,97743.49
2023-07-04T12:17:44.667Z,97743.03
2023-07-04T12:20:20.348Z,97739.97
2023-07-04T12:22:58.509Z,97737.85
2023-07-04T12:25:38.883Z,97741.28
2023-07-04T12:28:13.636Z,97737.96
2023-07-04T12:30:55.581Z,97741.81
2023-07-04T12:33:30.232Z,97741.70
2023-07-04T12:36:07.331Z,97743.55
2023-07-04T12:38:46.962Z,97739.45
2023-07-04T12:41:22.616Z,97737.61
2023-07-04T12:51:47.787Z,97735.84
2023-07-04T12:54:21.721Z,97730.17
2023-07-04T12:56:57.566Z,97730.59
2023-07-04T12:59:37.624Z,97720.98
2023-07-04T13:02:19.315Z,97718.36
2023-07-04T13:04:52.726Z,97719.07
2023-07-04T13:07:27.316Z,97715.69
2023-07-04T13:10:01.762Z,97714.64
2023-07-04T13:12:36.252Z,97715.87
2023-07-04T13:15:13.321Z,97715.35
2023-07-04T13:17:57.824Z,97719.30
2023-07-04T13:20:33.100Z,97714.08
2023-07-04T13:25:57.902Z,97714.63
2023-07-04T13:33:59.950Z,97710.77
2023-07-04T13:36:39.877Z,97713.95
2023-07-04T13:41:50.446Z,97715.59
2023-07-04T13:46:57.615Z,97720.86
2023-07-04T13:49:30.204Z,97717.93
2023-07-04T13:52:02.282Z,97712.54
2023-07-04T13:54:34.053Z,97708.13
2023-07-04T13:57:06.024Z,97708.57
2023-07-04T13:59:38.077Z,97707.34
2023-07-04T14:07:19.786Z,97706.33
2023-07-04T14:09:53.210Z,97707.65
2023-07-04T14:12:25.380Z,97705.14
2023-07-04T14:18:17.828Z,97703.11
2023-07-04T14:20:26.134Z,97700.09
2023-07-04T14:22:58.771Z,97699.71
2023-07-04T14:25:31.742Z,97696.94
2023-07-04T14:28:05.539Z,97700.73
2023-07-04T14:30:40.536Z,97696.94
2023-07-04T14:33:13.712Z,97695.16
2023-07-04T14:35:45.949Z,97697.05
2023-07-04T14:38:20.461Z,97699.29
2023-07-04T14:43:29.690Z,97691.76
2023-07-04T14:46:03.572Z,97689.52
2023-07-04T14:48:36.222Z,97691.24
2023-07-04T14:51:09.750Z,97692.89
2023-07-04T14:53:43.725Z,97690.14
2023-07-04T14:56:18.031Z,97686.25
2023-07-04T14:58:50.919Z,97686.73
2023-07-04T15:01:26.372Z,97687.48
2023-07-04T15:04:00.418Z,97693.60
2023-07-04T15:06:33.966Z,97688.56
2023-07-04T15:09:06.499Z,97687.12
2023-07-04T15:11:39.652Z,97688.27
2023-07-04T15:14:12.254Z,97686.77
2023-07-04T15:16:44.943Z,97692.17
2023-07-04T15:19:17.156Z,97689.67
2023-07-04T15:21:49.984Z,97693.44
2023-07-04T15:24:26.514Z,97699.95
2023-07-04T15:26:59.641Z,97701.24
2023-07-04T15:29:32.218Z,97698.95
2023-07-04T15:32:05.523Z,97701.94
2023-07-04T15:34:41.173Z,97697.31
2023-07-04T15:37:15.931Z,97699.10
2023-07-04T15:39:49.116Z,97698.59
2023-07-04T15:42:22.751Z,97698.25
2023-07-04T15:44:55.356Z,97695.05
2023-07-04T15:47:28.240Z,97692.03
2023-07-04T15:50:00.921Z,97696.20
2023-07-04T15:52:34.235Z,97690.73
2023-07-04T15:55:07.332Z,97689.39
2023-07-04T15:57:40.499Z,97688.94
2023-07-04T16:00:14.721Z,97694.71
2023-07-04T16:02:46.883Z,97694.58
2023-07-04T16:05:19.387Z,97698.41
2023-07-04T16:07:51.672Z,97694.96
2023-07-04T16:10:24.339Z,97695.10
2023-07-04T16:12:57.303Z,97697.09
2023-07-04T16:15:30.027Z,97697.27
2023-07-04T16:18:02.008Z,97700.69
2023-07-04T16:20:34.378Z,97697.86
2023-07-04T16:23:06.852Z,97698.37
2023-07-04T16:25:44.227Z,97698.06
2023-07-04T16:28:17.789Z,97694.19
2023-07-04T16:30:50.148Z,97698.58
2023-07-04T16:33:22.700Z,97699.11
2023-07-04T16:35:54.965Z,97698.37
2023-07-04T16:38:29.616Z,97694.89
2023-07-04T16:41:02.363Z,97693.66
2023-07-04T16:43:34.797Z,97691.39
2023-07-04T16:46:09.402Z,97690.77
2023-07-04T16:48:41.903Z,97695.50
2023-07-04T16:51:14.618Z,97692.27
2023-07-04T16:53:47.231Z,97689.90
2023-07-04T16:56:21.457Z,97687.46
2023-07-04T16:58:53.836Z,97690.59
2023-07-04T17:01:26.596Z,97689.89
2023-07-04T17:04:00.425Z,97688.00
2023-07-04T17:06:32.916Z,97689.07
2023-07-04T17:09:04.609Z,97687.96
2023-07-04T17:11:37.261Z,97690.33
2023-07-04T17:14:09.527Z,97692.98
2023-07-04T17:16:41.235Z,97694.11
2023-07-04T17:19:13.199Z,97689.48
2023-07-04T17:21:44.784Z,97689.58
2023-07-04T17:24:19.896Z,97689.38
2023-07-04T17:26:52.948Z,97696.91
2023-07-04T17:29:24.865Z,97699.63
2023-07-04T17:31:58.669Z,97698.35
2023-07-04T17:34:33.456Z,97699.52
2023-07-04T17:37:07.300Z,97706.34
2023-07-04T17:39:39.392Z,97709.77
2023-07-04T17:42:12.997Z,97710.55
2023-07-04T17:44:46.081Z,97710.46
2023-07-04T17:47:19.280Z,97710.30
2023-07-04T17:49:51.792Z,97706.70
2023-07-04T17:52:25.485Z,97711.88
2023-07-04T17:55:00.046Z,97712.50
2023-07-04T17:57:34.102Z,97714.50
2023-07-04T18:00:06.947Z,97711.70
2023-07-04T18:02:39.696Z,97711.91
2023-07-04T18:05:12.574Z,97713.55
2023-07-04T18:07:45.850Z,97717.76
2023-07-04T18:10:18.110Z,97716.69
2023-07-04T18:12:52.027Z,97715.45
2023-07-04T18:15:24.287Z,97711.04
2023-07-04T18:17:56.505Z,97714.17
2023-07-04T18:20:28.364Z,97716.27
2023-07-04T18:23:00.921Z,97719.08
2023-07-04T18:25:32.651Z,97724.30
2023-07-04T18:28:04.861Z,97723.30
2023-07-04T18:30:41.668Z,97728.22
2023-07-04T18:33:13.290Z,97727.60
2023-07-04T18:35:45.614Z,97721.43
2023-07-04T18:38:21.886Z,97725.55
2023-07-04T18:40:55.215Z,97727.76
2023-07-04T18:43:28.061Z,97723.48
2023-07-04T18:46:01.944Z,97728.55
2023-07-04T18:48:36.134Z,97735.36
2023-07-04T18:51:14.171Z,97738.27
2023-07-04T18:53:47.013Z,97742.46
2023-07-04T18:56:19.036Z,97743.09
2023-07-04T18:58:53.516Z,97746.93
2023-07-04T19:01:29.623Z,97750.45
2023-07-04T19:04:02.495Z,97749.33
2023-07-04T19:06:37.034Z,97755.41
2023-07-04T19:09:10.762Z,97754.39
2023-07-04T19:11:44.970Z,97758.95
2023-07-04T19:14:19.290Z,97759.98
2023-07-04T19:16:54.904Z,97764.55
2023-07-04T19:19:30.012Z,97767.98
2023-07-04T19:22:06.340Z,97772.27
2023-07-04T19:24:39.197Z,97775.80
2023-07-04T19:27:15.598Z,97781.38
2023-07-04T19:29:48.502Z,97781.49
2023-07-04T19:32:20.714Z,97784.38
2023-07-04T19:34:54.358Z,97786.81
2023-07-04T19:37:27.129Z,97792.27
2023-07-04T19:39:59.599Z,97796.70
2023-07-04T19:42:31.968Z,97797.73
2023-07-04T19:45:07.711Z,97795.70
2023-07-04T19:47:46.451Z,97794.12
2023-07-04T19:50:19.040Z,97795.21
2023-07-04T19:52:52.837Z,97797.69
2023-07-04T19:55:26.932Z,97795.13
2023-07-04T19:58:03.994Z,97796.27
2023-07-04T20:00:36.474Z,97799.52
2023-07-04T20:03:09.408Z,97796.52
2023-07-04T20:05:43.177Z,97794.66
2023-07-04T20:08:18.651Z,97793.48
2023-07-04T20:10:53.445Z,97794.92
2023-07-04T20:13:29.044Z,97793.97
2023-07-04T20:16:07.564Z,97799.58
2023-07-04T20:18:41.064Z,97800.01
2023-07-04T20:21:14.138Z,97798.11
2023-07-04T20:23:57.049Z,97793.82
2023-07-04T20:26:31.073Z,97798.90
2023-07-04T20:29:05.988Z,97801.60
2023-07-04T20:31:44.175Z,97808.23
2023-07-04T20:34:18.979Z,97808.48
2023-07-04T20:36:52.101Z,97807.80
2023-07-04T20:39:24.877Z,97808.44
2023-07-04T20:41:58.525Z,97811.67
2023-07-04T20:44:32.389Z,97814.04
2023-07-04T20:47:05.203Z,97820.73
2023-07-04T20:49:37.472Z,97821.99
2023-07-04T20:52:10.829Z,97821.69
2023-07-04T20:54:43.302Z,97825.17
2023-07-04T20:57:17.330Z,97824.68
2023-07-04T20:59:51.430Z,97821.11
2023-07-04T21:02:24.044Z,97821.46
2023-07-04T21:04:58.896Z,97819.86
2023-07-04T21:07:31.492Z,97819.11
2023-07-04T21:10:04.299Z,97819.93
2023-07-04T21:12:44.718Z,97826.56
2023-07-04T21:15:20.599Z,97827.90
2023-07-04T21:17:53.575Z,97830.73
2023-07-04T21:20:27.643Z,97833.20
2023-07-04T21:23:00.618Z,97834.38
2023-07-04T21:25:32.574Z,97837.84
2023-07-04T21:28:05.089Z,97841.90
2023-07-04T21:30:37.014Z,97840.62
2023-07-04T21:33:09.667Z,97849.13
2023-07-04T21:35:43.832Z,97846.22
2023-07-04T21:38:16.055Z,97847.08
2023-07-04T21:40:59.730Z,97851.39
2023-07-04T21:43:32.810Z,97851.56
2023-07-04T21:46:11.437Z,97850.84
2023-07-04T21:48:47.876Z,97854.34
2023-07-04T21:51:23.859Z,97860.11
2023-07-04T21:53:57.765Z,97851.14
2023-07-04T21:56:32.055Z,97851.04
2023-07-04T21:59:06.985Z,97850.45
2023-07-04T22:01:42.227Z,97853.05
2023-07-04T22:04:19.559Z,97855.51
2023-07-04T22:06:55.096Z,97856.48
2023-07-04T22:09:30.752Z,97860.24
2023-07-04T22:12:03.573Z,97859.39
2023-07-04T22:14:38.221Z,97861.02
2023-07-04T22:17:11.123Z,97862.59
2023-07-04T22:19:43.983Z,97863.13
2023-07-04T22:22:16.594Z,97861.66
2023-07-04T22:24:50.175Z,97865.70
2023-07-04T22:27:22.292Z,97868.27
2023-07-04T22:29:54.034Z,97867.36
2023-07-04T22:32:26.600Z,97863.65
2023-07-04T22:34:59.244Z,97865.39
2023-07-04T22:37:31.291Z,97865.56
2023-07-04T22:40:03.108Z,97871.77
2023-07-04T22:42:35.545Z,97873.34
2023-07-04T22:45:09.193Z,97875.48
2023-07-04T22:47:41.774Z,97874.67
2023-07-04T22:50:14.416Z,97872.91
2023-07-04T22:52:46.923Z,97870.41
2023-07-04T22:55:21.033Z,97869.68
2023-07-04T22:57:54.129Z,97866.54
2023-07-04T23:00:26.918Z,97863.08
2023-07-04T23:02:59.320Z,97865.01
2023-07-04T23:05:32.888Z,97865.09
2023-07-04T23:08:06.280Z,97863.73
2023-07-04T23:10:38.313Z,97861.98
2023-07-04T23:13:10.194Z,97864.69
2023-07-04T23:15:42.633Z,97864.33
2023-07-04T23:18:15.497Z,97866.75
2023-07-04T23:20:57.930Z,97865.77
2023-07-04T23:23:31.696Z,97868.61
2023-07-04T23:26:11.446Z,97871.63
2023-07-04T23:28:45.282Z,97872.33
2023-07-04T23:31:17.500Z,97874.55
2023-07-04T23:33:51.716Z,97877.77
2023-07-04T23:36:24.743Z,97875.98
2023-07-04T23:38:59.825Z,97875.20
2023-07-04T23:41:31.758Z,97876.73
2023-07-04T23:44:05.110Z,97876.83
2023-07-04T23:46:37.676Z,97879.34
2023-07-04T23:49:10.926Z,97874.95
2023-07-04T23:51:42.457Z,97877.02
2023-07-04T23:54:14.871Z,97878.75
2023-07-04T23:56:47.297Z,97876.52
2023-07-04T23:59:21.083Z,97875.17
